Time;durP1;ratioP1;P1;durP2;ratioP2;P2;SDS_P1;SDS_P2;PMS_P1;PMS_P2;Temp;Humidity;BMP_temperature;BMP_pressure;BME280_temperature;BME280_humidity;BME280_pressure;Samples;Min_cycle;Max_cycle;Signal;HPM_P1;HPM_P2
2023/05/17 00:01:54;;;;;;;9.08;2.60;;;;;;;8.85;96.22;99537.81;1643600;85;21172;-68
2023/05/17 00:04:22;;;;;;;9.40;3.27;;;;;;;8.83;96.07;99529.25;1638254;86;20987;-63
2023/05/17 00:06:48;;;;;;;10.58;3.05;;;;;;;8.84;96.19;99528.33;1639069;86;20963;-63
2023/05/17 00:09:15;;;;;;;9.63;3.05;;;;;;;8.86;96.21;99523.91;1636401;86;21085;-61
2023/05/17 00:11:41;;;;;;;5.15;2.42;;;;;;;8.87;96.18;99524.28;1637557;85;21109;-61
2023/05/17 00:14:10;;;;;;;12.35;3.00;;;;;;;8.86;96.13;99524.75;1616130;86;21086;-63
2023/05/17 00:16:39;;;;;;;9.00;3.47;;;;;;;8.84;96.11;99524.42;1643293;86;21040;-71
2023/05/17 00:19:07;;;;;;;8.50;2.62;;;;;;;8.84;96.17;99528.33;1637045;86;21080;-63
2023/05/17 00:21:35;;;;;;;11.22;3.00;;;;;;;8.86;96.45;99529.11;1641586;86;21069;-62
2023/05/17 00:24:03;;;;;;;13.75;3.22;;;;;;;8.84;96.46;99525.72;1641572;86;20988;-62
2023/05/17 00:26:32;;;;;;;6.75;2.67;;;;;;;8.79;96.34;99532.88;1631395;85;20986;-62
2023/05/17 00:29:03;;;;;;;13.43;2.92;;;;;;;8.79;96.58;99535.48;1615982;86;21079;-70
2023/05/17 00:31:32;;;;;;;6.80;2.62;;;;;;;8.81;96.52;99538.88;1640229;86;21030;-62
2023/05/17 00:34:00;;;;;;;16.82;3.67;;;;;;;8.77;96.47;99537.33;1629749;86;21101;-61
2023/05/17 00:36:31;;;;;;;9.98;2.77;;;;;;;8.73;96.32;99536.59;1638222;86;21628;-66
2023/05/17 00:39:02;;;;;;;7.35;2.15;;;;;;;8.68;96.29;99535.50;1619101;86;21070;-61
2023/05/17 00:41:27;;;;;;;8.70;3.00;;;;;;;8.66;96.62;99533.41;1636195;86;21038;-61
2023/05/17 00:43:55;;;;;;;6.67;2.27;;;;;;;8.61;96.44;99527.55;1642307;86;22201;-61
2023/05/17 00:46:21;;;;;;;8.03;2.30;;;;;;;8.55;96.53;99533.02;1640675;85;21135;-62
2023/05/17 00:48:52;;;;;;;12.45;2.77;;;;;;;8.62;96.37;99535.73;1632408;86;20979;-67
2023/05/17 00:51:20;;;;;;;9.15;2.22;;;;;;;8.56;96.71;99528.20;1633557;86;21054;-65
2023/05/17 00:53:48;;;;;;;5.08;2.12;;;;;;;8.59;96.93;99531.97;1635476;86;21047;-69
2023/05/17 00:56:18;;;;;;;7.35;2.58;;;;;;;8.56;96.59;99529.95;1612885;86;21542;-61
2023/05/17 00:58:45;;;;;;;9.25;2.60;;;;;;;8.48;96.55;99534.17;1635935;86;21093;-64
2023/05/17 01:01:13;;;;;;;8.90;2.33;;;;;;;8.42;96.49;99531.83;1608921;88;21057;-62
2023/05/17 01:03:39;;;;;;;9.53;2.30;;;;;;;8.40;96.64;99534.52;1634629;86;21068;-63
2023/05/17 01:06:06;;;;;;;8.13;2.17;;;;;;;8.37;96.62;99529.37;1635411;86;21621;-61
2023/05/17 01:08:32;;;;;;;9.68;2.65;;;;;;;8.37;96.61;99528.53;1635208;86;20971;-63
2023/05/17 01:11:10;;;;;;;10.28;3.00;;;;;;;8.34;96.52;99518.26;1630625;86;20937;-62
2023/05/17 01:13:44;;;;;;;11.15;2.00;;;;;;;8.31;96.46;99517.92;1636770;86;20975;-64
2023/05/17 01:16:33;;;;;;;8.45;2.30;;;;;;;8.28;96.45;99521.50;1637147;86;21058;-62
2023/05/17 01:19:23;;;;;;;6.53;2.30;;;;;;;8.22;96.42;99519.16;1610883;88;21155;-62
2023/05/17 01:21:58;;;;;;;9.05;2.75;;;;;;;8.18;96.51;99521.50;1635937;86;21030;-62
2023/05/17 01:24:34;;;;;;;4.85;2.12;;;;;;;8.10;96.38;99522.27;1639459;86;21077;-68
2023/05/17 01:27:04;;;;;;;11.70;2.80;;;;;;;8.06;96.47;99520.67;1615748;86;21814;-68
2023/05/17 01:29:34;;;;;;;6.25;1.80;;;;;;;8.02;96.44;99520.42;1648512;84;21091;-61
2023/05/17 01:32:02;;;;;;;8.58;2.33;;;;;;;8.00;96.39;99518.33;1672379;84;21028;-61
2023/05/17 01:34:31;;;;;;;5.42;2.00;;;;;;;7.97;96.42;99524.95;1673080;84;21431;-61
2023/05/17 01:36:57;;;;;;;9.10;2.02;;;;;;;7.97;96.53;99523.20;1677449;84;21129;-69
2023/05/17 01:39:30;;;;;;;6.77;1.87;;;;;;;7.93;96.42;99528.59;1671334;84;20997;-62
2023/05/17 01:42:04;;;;;;;9.58;2.45;;;;;;;7.92;96.30;99526.88;1671707;84;21098;-61
2023/05/17 01:44:46;;;;;;;7.33;1.87;;;;;;;7.92;96.50;99524.28;1672707;84;21484;-61
2023/05/17 01:47:16;;;;;;;8.58;2.20;;;;;;;7.92;96.35;99524.28;1672917;84;21079;-61
2023/05/17 01:49:46;;;;;;;9.53;2.33;;;;;;;7.89;96.23;99530.91;1676824;84;21093;-62
2023/05/17 01:52:16;;;;;;;7.65;2.40;;;;;;;7.87;96.17;99534.02;1671451;84;21090;-61
2023/05/17 01:54:59;;;;;;;9.28;2.10;;;;;;;7.85;96.11;99537.53;1675729;84;21646;-61
2023/05/17 01:57:28;;;;;;;5.60;2.17;;;;;;;7.85;96.08;99537.53;1652999;84;21059;-61
2023/05/17 01:59:56;;;;;;;8.65;1.80;;;;;;;7.83;96.03;99536.73;1673585;84;21039;-62
2023/05/17 02:02:22;;;;;;;7.72;1.90;;;;;;;7.78;95.73;99538.66;1669063;83;20991;-66
2023/05/17 02:04:50;;;;;;;3.92;1.45;;;;;;;7.73;95.61;99541.91;1671581;84;20981;-62
2023/05/17 02:07:18;;;;;;;4.80;1.62;;;;;;;7.72;95.68;99537.59;1676360;84;21044;-61
2023/05/17 02:09:45;;;;;;;13.10;2.00;;;;;;;7.71;95.60;99541.58;1675383;84;21119;-69
2023/05/17 02:12:15;;;;;;;10.05;2.40;;;;;;;7.72;95.74;99536.30;1672036;84;21096;-64
2023/05/17 02:14:41;;;;;;;9.33;1.90;;;;;;;7.70;95.44;99540.73;1668195;84;21098;-62
2023/05/17 02:17:09;;;;;;;5.35;1.95;;;;;;;7.69;95.46;99531.23;1675795;84;21022;-66
2023/05/17 02:19:35;;;;;;;6.70;1.60;;;;;;;7.70;95.50;99535.54;1675774;84;21082;-68
2023/05/17 02:22:08;;;;;;;5.92;2.12;;;;;;;7.73;95.49;99531.94;1673092;84;21428;-62
2023/05/17 02:24:32;;;;;;;5.42;1.70;;;;;;;7.70;95.32;99531.64;1668719;84;21036;-65
2023/05/17 02:26:58;;;;;;;5.70;1.65;;;;;;;7.64;95.22;99530.55;1675057;84;20964;-68
2023/05/17 02:29:25;;;;;;;6.75;1.67;;;;;;;7.59;95.06;99531.20;1670996;84;21491;-63
2023/05/17 02:31:51;;;;;;;8.23;1.62;;;;;;;7.61;95.33;99528.07;1671031;84;21036;-62
2023/05/17 02:34:19;;;;;;;4.75;1.92;;;;;;;7.56;95.16;99530.86;1671204;84;21534;-61
2023/05/17 02:36:47;;;;;;;8.80;2.22;;;;;;;7.52;95.16;99533.63;1664200;83;20977;-65
2023/05/17 02:39:15;;;;;;;8.08;1.82;;;;;;;7.51;95.25;99527.59;1664110;84;21115;-63
2023/05/17 02:41:41;;;;;;;4.67;1.52;;;;;;;7.53;95.33;99530.11;1668853;84;20974;-62
2023/05/17 02:44:08;;;;;;;5.28;1.87;;;;;;;7.52;95.15;99541.42;1668942;84;20918;-61
2023/05/17 02:46:36;;;;;;;6.53;2.00;;;;;;;7.47;94.94;99540.28;1667349;84;21098;-61
2023/05/17 02:49:04;;;;;;;5.22;1.72;;;;;;;7.48;95.12;99541.13;1667766;84;21529;-64
2023/05/17 02:51:30;;;;;;;4.80;1.22;;;;;;;7.42;95.08;99542.66;1666077;84;21030;-68
2023/05/17 02:53:58;;;;;;;5.20;1.60;;;;;;;7.35;95.15;99537.70;1664176;84;21091;-65
2023/05/17 02:56:24;;;;;;;3.05;1.20;;;;;;;7.34;95.26;99548.16;1672472;84;21140;-61
2023/05/17 02:58:51;;;;;;;5.47;1.47;;;;;;;7.29;95.14;99553.51;1638171;86;21557;-61
2023/05/17 03:01:17;;;;;;;4.83;1.77;;;;;;;7.26;95.18;99545.83;1633161;86;20994;-62
2023/05/17 03:03:43;;;;;;;4.42;1.40;;;;;;;7.29;95.25;99539.69;1669768;84;21075;-62
2023/05/17 03:06:11;;;;;;;9.73;2.00;;;;;;;7.28;95.34;99538.84;1669042;84;21366;-62
2023/05/17 03:08:37;;;;;;;5.12;1.87;;;;;;;7.29;95.34;99539.69;1665961;84;21026;-61
2023/05/17 03:11:06;;;;;;;6.35;1.67;;;;;;;7.27;95.27;99534.53;1670747;84;21569;-62
2023/05/17 03:13:33;;;;;;;6.47;1.90;;;;;;;7.28;95.36;99540.56;1666687;84;21585;-61
2023/05/17 03:16:01;;;;;;;15.70;2.47;;;;;;;7.31;95.41;99534.83;1671425;84;21090;-62
2023/05/17 03:18:28;;;;;;;4.25;1.70;;;;;;;7.32;95.48;99539.11;1635392;86;21057;-62
2023/05/17 03:20:54;;;;;;;6.08;2.15;;;;;;;7.36;95.34;99538.53;1670348;84;20972;-62
2023/05/17 03:23:20;;;;;;;10.08;2.40;;;;;;;7.39;95.42;99546.21;1667463;84;20963;-61
2023/05/17 03:25:46;;;;;;;6.78;2.12;;;;;;;7.36;95.04;99549.77;1637484;85;21105;-61
2023/05/17 03:28:12;;;;;;;19.67;2.85;;;;;;;7.32;95.21;99553.39;1661247;84;21075;-62
2023/05/17 03:30:40;;;;;;;9.65;2.17;;;;;;;7.38;95.63;99555.77;1665038;84;21089;-67
2023/05/17 03:33:12;;;;;;;11.57;1.98;;;;;;;7.44;95.70;99553.39;1642268;86;21028;-62
2023/05/17 03:35:37;;;;;;;6.20;2.02;;;;;;;7.49;95.49;99555.37;1637656;85;21124;-61
2023/05/17 03:38:04;;;;;;;5.15;1.72;;;;;;;7.53;95.54;99562.59;1632073;86;21049;-61
2023/05/17 03:40:32;;;;;;;5.55;2.00;;;;;;;7.56;95.51;99557.27;1671774;84;21055;-68
2023/05/17 03:43:00;;;;;;;10.72;2.00;;;;;;;7.60;95.43;99566.20;1674908;83;21010;-61
2023/05/17 03:45:27;;;;;;;5.60;1.75;;;;;;;7.70;95.53;99573.22;1676308;84;21067;-61
2023/05/17 03:47:59;;;;;;;5.28;2.55;;;;;;;7.74;95.45;99581.28;1664359;84;21580;-62
2023/05/17 03:50:26;;;;;;;5.33;1.87;;;;;;;7.75;95.32;99592.06;1673274;84;20993;-63
2023/05/17 03:52:52;;;;;;;7.58;2.25;;;;;;;7.76;95.33;99591.17;1645969;85;20952;-62
2023/05/17 03:55:18;;;;;;;11.22;2.37;;;;;;;7.74;95.36;99579.98;1677305;84;21524;-66
2023/05/17 03:57:46;;;;;;;6.30;2.58;;;;;;;7.75;95.34;99582.96;1671992;84;20972;-61
2023/05/17 04:00:20;;;;;;;6.37;2.10;;;;;;;7.73;95.35;99578.30;1676786;84;21636;-65
2023/05/17 04:02:43;;;;;;;11.80;2.95;;;;;;;7.67;95.27;99566.81;1676640;83;21054;-62
2023/05/17 04:05:17;;;;;;;8.80;2.50;;;;;;;7.69;95.37;99572.80;1669985;84;20984;-62
2023/05/17 04:07:43;;;;;;;6.90;2.58;;;;;;;7.72;95.53;99577.88;1662845;84;21722;-62
2023/05/17 04:10:12;;;;;;;9.75;2.77;;;;;;;7.76;95.57;99576.88;1671058;84;21031;-62
2023/05/17 04:12:40;;;;;;;8.50;2.33;;;;;;;7.79;95.71;99594.95;1668396;84;21091;-62
2023/05/17 04:15:11;;;;;;;10.43;2.55;;;;;;;7.80;95.73;99603.14;1668126;84;21062;-62
2023/05/17 04:17:37;;;;;;;6.90;2.45;;;;;;;7.88;95.88;99585.12;1655851;85;21117;-67
2023/05/17 04:20:06;;;;;;;14.93;4.17;;;;;;;7.95;95.91;99573.56;1673393;84;20989;-62
2023/05/17 04:22:33;;;;;;;10.32;2.70;;;;;;;8.01;95.95;99561.61;1674631;84;21287;-67
2023/05/17 04:24:59;;;;;;;10.55;3.50;;;;;;;8.06;95.90;99568.78;1677795;83;21088;-63
2023/05/17 04:27:28;;;;;;;12.13;3.12;;;;;;;8.10;95.91;99566.47;1672578;84;21045;-62
2023/05/17 04:29:57;;;;;;;10.18;3.02;;;;;;;8.16;95.95;99574.48;1679010;84;20977;-69
2023/05/17 04:32:26;;;;;;;10.00;3.10;;;;;;;8.23;96.09;99570.28;1675162;84;21480;-66
2023/05/17 04:34:58;;;;;;;7.37;2.95;;;;;;;8.26;95.68;99575.36;1633356;86;21018;-62
2023/05/17 04:37:26;;;;;;;11.43;2.92;;;;;;;8.32;95.94;99582.50;1672584;84;21062;-64
2023/05/17 04:40:00;;;;;;;6.22;2.87;;;;;;;8.38;95.86;99586.18;1669573;84;20941;-62
2023/05/17 04:42:22;;;;;;;10.68;3.30;;;;;;;8.46;95.77;99588.05;1635090;86;21045;-62
2023/05/17 04:44:49;;;;;;;11.40;3.37;;;;;;;8.53;96.01;99602.49;1672810;84;21017;-62
2023/05/17 04:47:15;;;;;;;9.13;2.80;;;;;;;8.68;96.20;99605.78;1673805;84;20992;-65
2023/05/17 04:49:42;;;;;;;8.73;3.45;;;;;;;8.77;95.71;99597.20;1672530;84;21090;-62
2023/05/17 04:52:08;;;;;;;13.03;3.77;;;;;;;8.90;96.21;99598.36;1669911;84;21607;-62
2023/05/17 04:54:34;;;;;;;14.35;3.55;;;;;;;8.99;95.72;99604.92;1671174;84;21543;-63
2023/05/17 04:57:02;;;;;;;11.10;4.08;;;;;;;9.07;95.64;99607.59;1673588;84;21024;-61
2023/05/17 04:59:28;;;;;;;7.00;3.00;;;;;;;9.12;94.82;99609.55;1672381;84;21042;-61
2023/05/17 05:01:55;;;;;;;10.43;3.35;;;;;;;9.18;95.72;99607.97;1671893;84;21044;-61
2023/05/17 05:04:23;;;;;;;7.95;2.65;;;;;;;9.32;95.91;99607.84;1674357;84;21086;-61
2023/05/17 05:06:49;;;;;;;6.92;2.62;;;;;;;9.44;95.89;99604.70;1633505;86;21047;-61
2023/05/17 05:09:19;;;;;;;7.30;2.67;;;;;;;9.61;96.23;99611.31;1672040;84;21043;-61
2023/05/17 05:11:45;;;;;;;8.73;3.80;;;;;;;9.76;96.05;99614.13;1674993;84;21024;-62
2023/05/17 05:14:11;;;;;;;6.60;2.60;;;;;;;9.92;95.41;99616.44;1668788;84;21087;-62
2023/05/17 05:16:42;;;;;;;11.15;4.08;;;;;;;10.04;95.50;99612.41;1672166;84;21692;-62
2023/05/17 05:19:09;;;;;;;7.67;3.33;;;;;;;10.12;95.30;99618.58;1674655;84;21072;-63
2023/05/17 05:21:35;;;;;;;8.00;2.70;;;;;;;10.25;95.92;99610.53;1636962;86;21059;-63
2023/05/17 05:24:02;;;;;;;10.13;3.72;;;;;;;10.47;95.94;99619.52;1668698;84;20973;-62
2023/05/17 05:26:29;;;;;;;8.60;2.27;;;;;;;10.65;95.67;99624.31;1644193;85;21039;-63
2023/05/17 05:28:59;;;;;;;6.33;2.60;;;;;;;10.79;95.31;99619.25;1673050;83;21096;-62
2023/05/17 05:31:29;;;;;;;8.83;2.42;;;;;;;10.85;94.36;99618.95;1676514;84;21032;-63
2023/05/17 05:33:55;;;;;;;6.08;2.12;;;;;;;10.97;94.56;99620.93;1667436;84;21055;-64
2023/05/17 05:36:22;;;;;;;9.43;2.62;;;;;;;11.13;95.24;99622.78;1669323;84;20921;-64
2023/05/17 05:38:51;;;;;;;7.62;2.40;;;;;;;11.34;94.82;99626.04;1667657;84;22244;-63
2023/05/17 05:41:16;;;;;;;7.17;2.20;;;;;;;11.46;94.65;99619.36;1630167;86;22122;-63
2023/05/17 05:43:43;;;;;;;6.97;2.62;;;;;;;11.64;95.04;99626.21;1627724;86;21006;-64
2023/05/17 05:46:09;;;;;;;5.97;2.22;;;;;;;11.88;95.14;99625.88;1667627;84;21519;-63
2023/05/17 05:48:38;;;;;;;13.00;2.70;;;;;;;12.06;94.25;99620.45;1637412;85;21109;-64
2023/05/17 05:51:09;;;;;;;7.53;2.08;;;;;;;12.08;92.76;99625.63;1668724;84;21054;-63
2023/05/17 05:53:35;;;;;;;8.50;2.80;;;;;;;12.15;93.13;99624.34;1669233;84;20995;-68
2023/05/17 05:56:03;;;;;;;6.05;2.17;;;;;;;12.19;92.17;99619.80;1668110;84;21648;-63
2023/05/17 05:58:30;;;;;;;5.53;2.30;;;;;;;12.22;92.10;99628.31;1667914;84;21019;-64
2023/05/17 06:00:59;;;;;;;;;;;;;;;12.34;92.69;99629.88;1670110;84;21530;-64
2023/05/17 06:03:25;;;;;;;9.45;2.52;;;;;;;12.47;91.91;99640.88;1668654;84;20387;-68
2023/05/17 06:05:51;;;;;;;8.90;2.35;;;;;;;12.54;91.44;99633.52;1667555;84;21574;-68
2023/05/17 06:08:17;;;;;;;5.67;1.92;;;;;;;12.60;91.30;99641.02;1668841;84;21069;-62
2023/05/17 06:10:45;;;;;;;3.77;2.00;;;;;;;12.67;91.73;99648.91;1667438;84;20952;-63
2023/05/17 06:13:11;;;;;;;7.78;2.40;;;;;;;12.87;91.85;99644.31;1668187;84;21046;-65
2023/05/17 06:15:37;;;;;;;6.75;2.90;;;;;;;13.16;92.65;99650.02;1668489;84;21012;-63
2023/05/17 06:18:04;;;;;;;5.30;1.87;;;;;;;13.59;93.43;99657.95;1666961;84;21108;-64
2023/05/17 06:20:31;;;;;;;7.85;1.80;;;;;;;13.83;91.10;99641.63;1630716;85;20970;-64
2023/05/17 06:23:00;;;;;;;8.48;2.40;;;;;;;13.90;90.77;99650.83;1640335;85;21018;-64
2023/05/17 06:25:30;;;;;;;8.50;2.02;;;;;;;14.15;92.13;99649.30;1666042;84;20980;-65
2023/05/17 06:27:57;;;;;;;6.60;2.37;;;;;;;14.44;90.83;99657.45;1665139;84;21052;-63
2023/05/17 06:30:26;;;;;;;9.05;2.05;;;;;;;14.42;89.10;99655.39;1640059;85;21671;-64
2023/05/17 06:32:52;;;;;;;6.20;2.08;;;;;;;14.27;88.84;99668.20;1631508;86;20951;-75
2023/05/17 06:35:19;;;;;;;6.60;2.27;;;;;;;14.30;89.81;99657.50;1615429;88;21793;-65
2023/05/17 06:37:46;;;;;;;5.78;2.27;;;;;;;14.25;89.55;99663.51;1633807;86;20999;-65
2023/05/17 06:40:15;;;;;;;9.78;2.52;;;;;;;14.14;88.81;99673.84;1632522;86;21047;-67
2023/05/17 06:42:43;;;;;;;5.97;2.45;;;;;;;14.14;89.31;99678.63;1631671;85;21077;-67
2023/05/17 06:45:10;;;;;;;7.12;2.87;;;;;;;14.09;88.92;99672.37;1637605;86;21045;-67
2023/05/17 06:47:41;;;;;;;5.35;2.70;;;;;;;13.95;88.61;99669.77;1630143;86;21145;-66
2023/05/17 06:50:08;;;;;;;7.40;2.75;;;;;;;13.66;86.75;99678.93;1633379;86;21018;-63
2023/05/17 06:52:35;;;;;;;6.78;2.40;;;;;;;13.37;86.94;99678.55;1630843;86;21084;-66
2023/05/17 06:55:02;;;;;;;9.63;2.83;;;;;;;13.15;87.65;99687.63;1630370;86;20963;-64
2023/05/17 06:57:31;;;;;;;5.70;2.20;;;;;;;13.08;87.38;99695.93;1605636;88;21041;-63
2023/05/17 06:59:57;;;;;;;6.83;2.15;;;;;;;13.08;88.09;99694.18;1633703;86;21038;-63
2023/05/17 07:02:25;;;;;;;5.78;2.65;;;;;;;13.02;86.92;99699.75;1632310;86;21561;-64
2023/05/17 07:04:56;;;;;;;7.83;2.72;;;;;;;12.98;87.83;99706.12;1604478;87;21057;-69
2023/05/17 07:07:28;;;;;;;7.25;2.37;;;;;;;13.13;88.72;99702.59;1630869;86;21077;-63
2023/05/17 07:09:51;;;;;;;9.40;2.47;;;;;;;13.06;88.10;99711.77;1632080;86;21117;-64
2023/05/17 07:12:18;;;;;;;6.92;2.70;;;;;;;13.23;89.18;99716.03;1632691;86;21011;-64
2023/05/17 07:14:44;;;;;;;5.83;2.42;;;;;;;13.32;88.79;99719.92;1608712;88;21542;-68
2023/05/17 07:17:11;;;;;;;10.27;2.77;;;;;;;13.62;89.81;99719.42;1634400;86;21614;-62
2023/05/17 07:19:38;;;;;;;16.35;2.77;;;;;;;13.98;89.12;99724.70;1610273;88;21052;-63
2023/05/17 07:22:04;;;;;;;6.83;2.08;;;;;;;14.28;89.03;99714.52;1635921;86;21077;-62
2023/05/17 07:24:34;;;;;;;9.05;2.45;;;;;;;14.48;89.27;99716.77;1607159;88;21097;-63
2023/05/17 07:27:00;;;;;;;8.48;3.52;;;;;;;14.63;86.95;99704.93;1634026;86;21005;-66
2023/05/17 07:29:28;;;;;;;6.30;2.30;;;;;;;14.45;86.43;99718.27;1631602;86;21434;-64
2023/05/17 07:31:54;;;;;;;8.03;2.87;;;;;;;14.36;86.06;99720.63;1613139;86;21078;-63
2023/05/17 07:34:27;;;;;;;7.92;2.35;;;;;;;14.28;85.65;99725.03;1657046;85;21535;-60
2023/05/17 07:36:51;;;;;;;6.62;2.25;;;;;;;14.22;87.12;99726.73;1632733;85;21539;-61
2023/05/17 07:39:17;;;;;;;6.35;2.12;;;;;;;14.19;86.30;99729.08;1634149;86;20996;-60
2023/05/17 07:41:43;;;;;;;6.40;2.92;;;;;;;14.00;86.11;99730.70;1633524;86;21018;-60
2023/05/17 07:44:10;;;;;;;6.20;2.37;;;;;;;13.83;85.77;99743.98;1632734;86;20978;-60
2023/05/17 07:46:44;;;;;;;4.60;2.10;;;;;;;13.56;85.71;99744.71;1634021;86;21221;-60
2023/05/17 07:49:09;;;;;;;7.12;2.60;;;;;;;13.28;85.88;99749.89;1658385;84;20996;-61
2023/05/17 07:51:36;;;;;;;8.20;2.62;;;;;;;13.09;85.84;99755.31;1652892;84;21013;-60
2023/05/17 07:54:04;;;;;;;7.58;2.83;;;;;;;12.99;86.28;99753.22;1660123;84;21681;-60
2023/05/17 07:56:35;;;;;;;6.60;2.67;;;;;;;12.70;84.60;99754.84;1656603;85;20955;-60
2023/05/17 07:59:05;;;;;;;8.55;3.15;;;;;;;12.50;85.77;99751.17;1653696;85;21089;-62
2023/05/17 08:01:33;;;;;;;9.58;3.33;;;;;;;12.36;85.84;99767.63;1659460;85;20949;-64
2023/05/17 08:04:00;;;;;;;9.20;3.25;;;;;;;12.28;85.86;99773.73;1656199;84;21138;-73
2023/05/17 08:06:26;;;;;;;7.05;2.25;;;;;;;12.31;86.56;99790.59;1654294;84;21027;-60
2023/05/17 08:08:52;;;;;;;9.48;2.52;;;;;;;12.37;86.03;99789.41;1666552;85;21013;-65
2023/05/17 08:11:20;;;;;;;10.95;2.75;;;;;;;12.44;85.80;99780.31;1661165;83;21049;-64
2023/05/17 08:13:48;;;;;;;9.00;2.95;;;;;;;12.49;86.12;99790.05;1653314;85;21655;-61
2023/05/17 08:16:14;;;;;;;9.43;2.60;;;;;;;12.57;85.95;99790.95;1657576;85;21239;-61
2023/05/17 08:18:42;;;;;;;8.83;2.47;;;;;;;12.59;85.65;99793.88;1664045;84;21573;-61
2023/05/17 08:21:10;;;;;;;9.28;2.25;;;;;;;12.53;85.34;99799.45;1661966;85;20995;-60
2023/05/17 08:23:36;;;;;;;8.18;3.10;;;;;;;12.45;84.94;99800.33;1657724;85;21107;-61
2023/05/17 08:26:11;;;;;;;8.55;3.27;;;;;;;12.43;85.41;99798.24;1658088;85;21127;-69
2023/05/17 08:28:33;;;;;;;5.25;2.02;;;;;;;12.54;85.80;99795.89;1659554;85;21583;-62
2023/05/17 08:31:00;;;;;;;10.82;2.70;;;;;;;12.90;85.73;99794.81;1657040;85;21068;-61
2023/05/17 08:33:27;;;;;;;5.35;1.87;;;;;;;13.42;86.81;99797.98;1638359;86;21015;-61
2023/05/17 08:35:54;;;;;;;8.85;2.00;;;;;;;14.51;89.78;99796.70;1665696;84;21042;-61
2023/05/17 08:38:21;;;;;;;9.58;2.33;;;;;;;16.50;90.83;99792.35;1667625;84;21152;-61
2023/05/17 08:40:58;;;;;;;6.03;1.95;;;;;;;17.22;85.29;99790.66;1663340;84;21135;-61
2023/05/17 08:43:25;;;;;;;6.72;2.12;;;;;;;17.07;82.49;99783.02;1665210;84;21537;-62
2023/05/17 08:45:56;;;;;;;8.68;2.30;;;;;;;16.61;82.22;99806.06;1669580;84;21001;-62
2023/05/17 08:48:29;;;;;;;9.03;2.58;;;;;;;16.75;82.28;99807.27;1637990;86;21048;-61
2023/05/17 08:50:56;;;;;;;8.00;2.00;;;;;;;17.08;84.23;99805.80;1645798;85;21127;-71
2023/05/17 08:53:24;;;;;;;10.88;1.80;;;;;;;18.15;86.95;99807.48;1665567;84;21028;-63
2023/05/17 08:55:54;;;;;;;7.12;1.95;;;;;;;19.71;85.62;99805.51;1667587;84;21043;-67
2023/05/17 08:58:26;;;;;;;5.83;1.87;;;;;;;20.33;82.40;99804.63;1666289;84;21036;-62
2023/05/17 09:00:56;;;;;;;7.03;2.15;;;;;;;19.92;74.76;99820.59;1670204;84;21016;-62
2023/05/17 09:03:24;;;;;;;7.40;1.95;;;;;;;19.20;79.22;99830.02;1668248;84;21002;-66
2023/05/17 09:05:53;;;;;;;8.93;2.05;;;;;;;20.00;81.72;99832.70;1668895;84;21014;-62
2023/05/17 09:08:22;;;;;;;7.67;1.72;;;;;;;20.09;80.51;99829.27;1668479;84;20994;-64
2023/05/17 09:10:49;;;;;;;5.10;1.90;;;;;;;20.39;82.62;99827.13;1670256;84;21075;-62
2023/05/17 09:13:17;;;;;;;13.60;1.90;;;;;;;21.03;79.84;99828.59;1669505;84;20995;-65
2023/05/17 09:15:46;;;;;;;9.53;2.35;;;;;;;21.60;81.16;99815.53;1672986;84;21044;-65
2023/05/17 09:18:13;;;;;;;7.95;2.05;;;;;;;22.33;78.55;99818.48;1664692;84;20987;-62
2023/05/17 09:20:40;;;;;;;12.05;2.60;;;;;;;22.47;78.76;99824.66;1668668;84;21037;-63
2023/05/17 09:23:15;;;;;;;8.30;2.27;;;;;;;22.91;80.21;99811.55;1666281;84;22054;-65
2023/05/17 09:25:52;;;;;;;8.45;2.17;;;;;;;23.35;79.44;99826.33;1665696;84;21091;-63
2023/05/17 09:28:19;;;;;;;6.72;2.15;;;;;;;24.38;77.94;99823.11;1670892;84;21538;-61
2023/05/17 09:30:48;;;;;;;5.53;1.77;;;;;;;25.37;80.20;99823.81;1671837;84;21547;-72
2023/05/17 09:33:20;;;;;;;8.40;1.80;;;;;;;26.47;79.09;99822.89;1670088;84;21045;-63
2023/05/17 09:35:46;;;;;;;8.68;2.35;;;;;;;27.14;79.02;99822.40;1662358;84;20982;-63
2023/05/17 09:38:14;;;;;;;7.70;2.30;;;;;;;27.77;76.99;99829.34;1667709;84;21537;-62
2023/05/17 09:40:45;;;;;;;9.35;2.12;;;;;;;28.08;75.59;99836.45;1630085;86;21636;-63
2023/05/17 09:43:14;;;;;;;8.10;2.30;;;;;;;27.47;73.48;99835.62;1665477;84;21002;-62
2023/05/17 09:45:42;;;;;;;7.47;2.55;;;;;;;26.44;72.03;99836.12;1659089;84;21034;-63
2023/05/17 09:48:14;;;;;;;5.78;2.00;;;;;;;25.68;73.85;99840.89;1664710;84;21100;-66
2023/05/17 09:50:46;;;;;;;11.93;2.62;;;;;;;25.99;73.03;99836.22;1668908;84;20989;-62
2023/05/17 09:53:31;;;;;;;6.90;2.50;;;;;;;25.73;71.40;99846.22;1663895;84;20993;-69
2023/05/17 09:55:59;;;;;;;8.63;2.30;;;;;;;25.06;69.35;99847.09;1665037;84;21062;-61
2023/05/17 09:58:27;;;;;;;9.63;2.85;;;;;;;24.58;71.39;99855.27;1669922;84;21028;-63
2023/05/17 10:00:57;;;;;;;9.53;2.80;;;;;;;25.34;72.00;99846.86;1666136;84;21066;-65
2023/05/17 10:03:28;;;;;;;8.73;2.62;;;;;;;26.19;71.81;99851.91;1669492;84;21005;-67
2023/05/17 10:05:54;;;;;;;8.55;2.15;;;;;;;27.03;71.37;99857.64;1668189;84;21064;-62
2023/05/17 10:08:24;;;;;;;9.20;2.55;;;;;;;27.06;68.48;99854.63;1666266;84;21028;-66
2023/05/17 10:10:55;;;;;;;16.40;2.70;;;;;;;26.17;64.82;99868.12;1667191;84;20973;-67
2023/05/17 10:13:25;;;;;;;11.03;2.70;;;;;;;24.92;67.33;99874.44;1677095;84;21056;-65
2023/05/17 10:15:57;;;;;;;10.88;2.60;;;;;;;25.07;67.98;99880.84;1659589;84;21145;-69
2023/05/17 10:18:22;;;;;;;9.30;2.67;;;;;;;26.12;70.04;99875.31;1671710;84;21082;-70
2023/05/17 10:20:49;;;;;;;10.43;2.55;;;;;;;27.14;66.17;99884.04;1667406;84;21093;-64
2023/05/17 10:23:16;;;;;;;10.70;2.20;;;;;;;27.69;65.00;99873.66;1661088;84;20972;-63
2023/05/17 10:25:43;;;;;;;10.15;2.70;;;;;;;28.16;65.25;99879.33;1665651;84;21004;-66
2023/05/17 10:28:12;;;;;;;13.38;2.58;;;;;;;27.94;65.15;99884.23;1630670;86;21027;-62
2023/05/17 10:30:39;;;;;;;7.75;3.12;;;;;;;28.28;64.39;99879.70;1661614;84;21016;-77
2023/05/17 10:33:07;;;;;;;11.85;3.02;;;;;;;28.66;63.44;99879.67;1674543;84;21015;-62
2023/05/17 10:35:39;;;;;;;8.65;3.15;;;;;;;28.40;63.88;99883.62;1654037;84;21608;-62
2023/05/17 10:38:05;;;;;;;6.95;2.70;;;;;;;28.81;63.25;99879.66;1670385;84;21052;-72
2023/05/17 10:40:33;;;;;;;17.02;3.30;;;;;;;28.51;61.90;99885.03;1673110;84;21013;-62
2023/05/17 10:43:01;;;;;;;9.33;2.83;;;;;;;28.17;61.72;99889.55;1671184;84;21549;-64
2023/05/17 10:45:27;;;;;;;14.05;3.05;;;;;;;27.89;57.15;99892.30;1673446;84;21005;-63
2023/05/17 10:47:54;;;;;;;;;;;;;;;27.58;60.19;99888.83;1675765;84;21463;-62
2023/05/17 10:50:22;;;;;;;8.28;2.58;;;;;;;27.01;55.02;99890.81;1666199;84;20232;-69
2023/05/17 10:52:55;;;;;;;11.85;2.95;;;;;;;26.36;56.67;99901.72;1669465;84;21047;-63
2023/05/17 10:55:25;;;;;;;13.65;3.52;;;;;;;26.99;60.02;99898.19;1636905;86;21677;-68
2023/05/17 10:58:16;;;;;;;6.97;2.05;;;;;;;28.24;59.66;99898.05;1668592;84;21147;-63
2023/05/17 11:00:48;;;;;;;8.80;2.70;;;;;;;29.12;58.07;99903.64;1654797;84;20988;-64
2023/05/17 11:03:24;;;;;;;16.45;3.15;;;;;;;29.83;58.52;99901.13;1667302;84;20975;-64
2023/05/17 11:06:13;;;;;;;7.03;2.75;;;;;;;29.53;53.94;99911.97;1666636;84;20995;-63
2023/05/17 11:08:47;;;;;;;9.93;2.60;;;;;;;29.25;52.68;99902.98;1667859;84;21615;-63
2023/05/17 11:11:21;;;;;;;11.57;3.05;;;;;;;28.97;54.04;99920.59;1644470;84;21071;-63
2023/05/17 11:13:54;;;;;;;13.05;2.65;;;;;;;28.79;52.75;99917.45;1669041;84;21033;-67
2023/05/17 11:16:22;;;;;;;9.08;2.67;;;;;;;28.66;51.02;99912.73;1643538;86;20999;-64
2023/05/17 11:18:54;;;;;;;9.00;2.70;;;;;;;28.43;51.85;99907.94;1672314;84;21600;-64
2023/05/17 11:21:26;;;;;;;12.50;3.15;;;;;;;28.01;50.19;99917.39;1663785;84;21051;-64
2023/05/17 11:23:58;;;;;;;14.25;2.85;;;;;;;27.08;50.82;99923.61;1666936;85;21017;-65
2023/05/17 11:26:32;;;;;;;14.80;3.17;;;;;;;27.05;49.13;99917.25;1666228;84;21489;-68
2023/05/17 11:29:03;;;;;;;9.48;2.47;;;;;;;26.88;49.45;99928.03;1665699;84;21689;-70
2023/05/17 11:31:34;;;;;;;10.60;3.42;;;;;;;26.52;49.58;99916.45;1664981;84;21047;-64
2023/05/17 11:34:03;;;;;;;11.22;3.27;;;;;;;25.87;48.89;99927.16;1669104;84;21492;-68
2023/05/17 11:36:31;;;;;;;7.90;2.80;;;;;;;25.35;47.65;99936.75;1668850;84;21618;-64
2023/05/17 11:39:11;;;;;;;9.80;2.85;;;;;;;24.93;48.56;99941.56;1633039;86;21059;-64
2023/05/17 11:41:40;;;;;;;21.65;3.67;;;;;;;24.69;47.57;99935.08;1672675;84;21045;-69
2023/05/17 11:44:14;;;;;;;14.53;2.83;;;;;;;23.78;46.41;99935.85;1671718;84;21584;-64